Terminal Aerodrome Forecast
Issued by NWS

Home | Current Version | Previous Version | Text Only | Print | Product List | Glossary On
Versions: 1 2 3 4 5 6 7 8 9 10 11 12 13 14 15 16 17 18 19 20 21 22 23
000
FTUS43 KLSX 281100
TAFUIN
TAF
KUIN 281140Z 2812/2912 22006KT P6SM SCT080 BKN250
     FM281400 22010KT P6SM SCT035 BKN100
      TEMPO 2814/2816 5SM -TSRA BKN030CB
     FM282100 20013G19KT P6SM VCTS SCT050CB BKN100
      TEMPO 2822/2824 3SM TSRA OVC030CB
     FM290200 24010KT P6SM BKN040
     FM290600 26008KT P6SM SCT040 BKN250=

USA.gov is the U.S. government's official web portal to all federal, state and local government web resources and services.